createdAt,value
2022-08-12T00:00:08.975Z,22.15
2022-08-12T00:02:54.853Z,22.20
2022-08-12T00:06:04.665Z,22.19
2022-08-12T00:08:50.693Z,22.20
2022-08-12T00:11:36.031Z,22.23
2022-08-12T00:14:21.111Z,22.24
2022-08-12T00:17:06.727Z,22.21
2022-08-12T00:19:52.325Z,22.25
2022-08-12T00:22:38.825Z,22.22
2022-08-12T00:25:55.737Z,22.17
2022-08-12T00:28:33.500Z,22.15
2022-08-12T00:31:19.693Z,22.11
2022-08-12T00:34:05.604Z,22.05
2022-08-12T00:36:51.678Z,22.08
2022-08-12T00:39:37.875Z,22.03
2022-08-12T00:42:10.927Z,22.04
2022-08-12T00:44:44.012Z,22.01
2022-08-12T00:47:25.254Z,22.00
2022-08-12T00:49:55.692Z,21.97
2022-08-12T00:52:24.333Z,21.98
2022-08-12T00:54:54.838Z,22.01
2022-08-12T00:57:26.358Z,21.91
2022-08-12T00:59:56.090Z,22.02
2022-08-12T01:02:27.429Z,21.92
2022-08-12T01:05:15.475Z,22.04
2022-08-12T01:08:02.534Z,22.01
2022-08-12T01:10:50.185Z,22.03
2022-08-12T01:13:20.682Z,22.01
2022-08-12T01:15:52.377Z,21.98
2022-08-12T01:18:22.852Z,21.95
2022-08-12T01:21:01.234Z,21.97
2022-08-12T01:24:29.619Z,21.87
2022-08-12T01:26:54.803Z,21.90
2022-08-12T01:29:28.604Z,21.85
2022-08-12T01:32:06.442Z,21.75
2022-08-12T01:34:38.479Z,21.78
2022-08-12T01:37:09.145Z,21.78
2022-08-12T01:40:35.601Z,21.69
2022-08-12T01:42:35.940Z,21.63
2022-08-12T01:45:04.883Z,21.56
2022-08-12T01:47:50.789Z,21.50
2022-08-12T01:50:26.575Z,21.48
2022-08-12T01:53:05.590Z,21.39
2022-08-12T01:55:38.364Z,21.31
2022-08-12T01:58:24.164Z,21.27
2022-08-12T02:01:00.045Z,21.28
2022-08-12T02:04:10.770Z,21.27
2022-08-12T02:07:03.670Z,21.25
2022-08-12T02:10:05.665Z,21.19
2022-08-12T02:12:54.606Z,21.11
2022-08-12T02:15:32.174Z,21.10
2022-08-12T02:18:13.868Z,21.12
2022-08-12T02:20:52.715Z,21.07
2022-08-12T02:23:27.202Z,20.94
2022-08-12T02:25:59.456Z,20.72
2022-08-12T02:28:28.263Z,20.63
2022-08-12T02:31:02.871Z,20.59
2022-08-12T02:33:31.633Z,20.53
2022-08-12T02:36:01.608Z,20.50
2022-08-12T02:38:31.274Z,20.49
2022-08-12T02:41:02.463Z,20.45
2022-08-12T02:43:37.320Z,20.43
2022-08-12T02:46:13.797Z,20.39
2022-08-12T02:48:47.420Z,20.35
2022-08-12T02:51:19.474Z,20.27
2022-08-12T02:54:05.046Z,20.18
2022-08-12T02:56:37.644Z,20.16
2022-08-12T02:59:12.129Z,20.10
2022-08-12T03:01:48.579Z,20.06
2022-08-12T03:04:26.753Z,20.07
2022-08-12T03:07:03.876Z,20.05
2022-08-12T03:10:03.380Z,19.91
2022-08-12T03:12:26.452Z,19.83
2022-08-12T03:15:06.591Z,19.87
2022-08-12T03:17:46.191Z,19.86
2022-08-12T03:20:38.132Z,19.79
2022-08-12T03:23:07.307Z,19.78
2022-08-12T03:25:37.493Z,19.76
2022-08-12T03:28:06.696Z,19.71
2022-08-12T03:30:34.869Z,19.67
2022-08-12T03:33:06.079Z,19.60
2022-08-12T03:35:41.066Z,19.54
2022-08-12T03:38:12.501Z,19.51
2022-08-12T03:41:16.270Z,19.51
2022-08-12T03:44:09.946Z,19.45
2022-08-12T03:46:58.004Z,19.44
2022-08-12T03:49:46.017Z,19.37
2022-08-12T03:52:31.572Z,19.39
2022-08-12T03:55:17.760Z,19.33
2022-08-12T03:58:03.182Z,19.24
2022-08-12T04:00:32.112Z,19.20
2022-08-12T04:03:01.788Z,19.20
2022-08-12T04:05:55.781Z,19.14
2022-08-12T04:08:25.388Z,19.14
2022-08-12T04:11:12.241Z,19.06
2022-08-12T04:13:40.802Z,19.14
2022-08-12T04:16:14.497Z,19.17
2022-08-12T04:18:43.065Z,19.15
2022-08-12T04:21:13.082Z,19.07
2022-08-12T04:23:47.872Z,19.11
2022-08-12T04:26:16.496Z,19.12
2022-08-12T04:28:45.983Z,19.16
2022-08-12T04:31:14.795Z,19.17
2022-08-12T04:33:44.258Z,19.13
2022-08-12T04:36:13.769Z,19.13
2022-08-12T04:38:43.546Z,19.13
2022-08-12T04:41:12.296Z,19.15
2022-08-12T04:43:53.909Z,19.14
2022-08-12T04:46:33.566Z,19.17
2022-08-12T04:49:03.652Z,19.16
2022-08-12T04:51:34.018Z,19.21
2022-08-12T04:54:03.441Z,19.27
2022-08-12T04:56:35.528Z,19.21
2022-08-12T04:59:05.419Z,19.30
2022-08-12T05:01:33.528Z,19.34
2022-08-12T05:04:02.949Z,19.35
2022-08-12T05:06:32.856Z,19.41
2022-08-12T05:09:01.359Z,19.42
2022-08-12T05:11:29.984Z,19.47
2022-08-12T05:14:00.918Z,19.47
2022-08-12T05:16:33.074Z,19.48
2022-08-12T05:19:05.368Z,19.51
2022-08-12T05:21:42.461Z,19.55
2022-08-12T05:24:10.499Z,19.63
2022-08-12T05:26:38.518Z,19.71
2022-08-12T05:30:05.068Z,19.77
2022-08-12T05:31:56.878Z,19.81
2022-08-12T05:34:26.822Z,19.84
2022-08-12T05:36:56.346Z,19.95
2022-08-12T05:39:24.372Z,19.98
2022-08-12T05:41:53.542Z,20.02
2022-08-12T05:44:21.497Z,20.04
2022-08-12T05:46:49.519Z,20.10
2022-08-12T05:49:17.565Z,20.15
2022-08-12T05:51:45.548Z,20.30
2022-08-12T05:54:16.390Z,20.31
2022-08-12T05:56:44.386Z,20.35
2022-08-12T05:59:13.957Z,20.40
2022-08-12T06:02:10.113Z,20.45
2022-08-12T06:04:33.279Z,20.52
2022-08-12T06:07:02.549Z,20.61
2022-08-12T06:09:52.016Z,20.77
2022-08-12T06:12:23.314Z,20.83
2022-08-12T06:14:51.284Z,20.83
2022-08-12T06:17:22.661Z,20.97
2022-08-12T06:20:26.113Z,21.06
2022-08-12T06:22:39.504Z,21.15
2022-08-12T06:25:10.052Z,21.23
2022-08-12T06:28:07.638Z,21.21
2022-08-12T06:30:39.105Z,21.28
2022-08-12T06:33:21.893Z,21.28
2022-08-12T06:35:51.798Z,21.38
2022-08-12T06:38:22.526Z,21.35
2022-08-12T06:41:13.011Z,21.39
2022-08-12T06:44:06.140Z,21.47
2022-08-12T06:46:31.068Z,21.59
2022-08-12T06:49:00.593Z,21.69
2022-08-12T06:51:30.614Z,21.74
2022-08-12T06:53:59.809Z,21.79
2022-08-12T06:57:01.927Z,21.86
2022-08-12T06:59:21.267Z,22.09
2022-08-12T07:01:51.623Z,22.19
2022-08-12T07:04:38.457Z,22.22
2022-08-12T07:07:10.893Z,22.24
2022-08-12T07:14:11.164Z,22.73
2022-08-12T07:16:57.612Z,22.71
2022-08-12T07:19:26.757Z,23.03
2022-08-12T07:22:14.211Z,22.89
2022-08-12T07:24:42.425Z,23.14
2022-08-12T07:27:10.763Z,23.07
2022-08-12T07:30:04.273Z,23.34
2022-08-12T07:32:29.455Z,23.40
2022-08-12T07:35:00.828Z,23.69
2022-08-12T07:37:29.137Z,24.38
2022-08-12T07:40:02.877Z,24.12
2022-08-12T07:42:31.362Z,23.97
2022-08-12T07:45:01.146Z,23.88
2022-08-12T07:47:30.876Z,24.20
2022-08-12T07:50:05.777Z,24.78
2022-08-12T07:52:35.080Z,24.72
2022-08-12T07:55:03.739Z,25.03
2022-08-12T07:57:36.661Z,24.96
2022-08-12T08:00:08.307Z,24.78
2022-08-12T08:02:37.247Z,24.66
2022-08-12T08:05:06.855Z,24.59
2022-08-12T08:07:35.773Z,24.58
2022-08-12T08:10:09.259Z,24.65
2022-08-12T08:13:01.247Z,24.71
2022-08-12T08:16:01.328Z,24.95
2022-08-12T08:18:25.801Z,25.79
2022-08-12T08:20:57.157Z,25.62
2022-08-12T08:23:55.615Z,25.99
2022-08-12T08:26:27.323Z,25.69
2022-08-12T08:28:56.018Z,25.49
2022-08-12T08:31:25.800Z,25.46
2022-08-12T08:34:05.157Z,25.68
2022-08-12T08:36:41.679Z,26.24
2022-08-12T08:39:13.308Z,26.47
2022-08-12T08:42:17.226Z,26.78
2022-08-12T08:44:47.203Z,26.50
2022-08-12T08:47:22.179Z,26.51
2022-08-12T08:49:50.787Z,26.40
2022-08-12T08:52:39.668Z,26.29
2022-08-12T08:55:11.005Z,26.39
2022-08-12T08:57:52.088Z,26.52
2022-08-12T09:00:24.855Z,26.40
2022-08-12T09:02:59.225Z,26.28
2022-08-12T09:06:02.872Z,26.28
2022-08-12T09:08:41.339Z,26.63
2022-08-12T09:12:07.473Z,26.62
2022-08-12T09:14:29.240Z,26.65
2022-08-12T09:16:58.018Z,27.10
2022-08-12T09:19:29.178Z,26.94
2022-08-12T09:22:02.142Z,26.83
2022-08-12T09:24:36.271Z,26.80
2022-08-12T09:27:12.223Z,27.49
2022-08-12T09:30:11.331Z,27.93
2022-08-12T09:33:04.907Z,27.89
2022-08-12T09:35:28.319Z,27.95
2022-08-12T09:37:59.374Z,28.05
2022-08-12T09:40:57.418Z,28.19
2022-08-12T09:43:36.927Z,28.18
2022-08-12T09:46:21.000Z,28.02
2022-08-12T09:48:56.297Z,28.10
2022-08-12T09:51:38.210Z,28.05
2022-08-12T09:54:33.935Z,27.99
2022-08-12T09:58:07.041Z,27.78
2022-08-12T10:00:12.897Z,27.81
2022-08-12T10:02:45.302Z,27.99
2022-08-12T10:05:20.539Z,28.19
2022-08-12T10:07:50.696Z,27.91
2022-08-12T10:10:22.630Z,28.00
2022-08-12T10:13:12.487Z,27.90
2022-08-12T10:16:02.711Z,27.75
2022-08-12T10:18:51.595Z,28.18
2022-08-12T10:21:23.843Z,27.85
2022-08-12T10:24:06.121Z,28.47
2022-08-12T10:26:52.635Z,28.41
2022-08-12T10:30:38.641Z,28.58
2022-08-12T10:32:43.800Z,28.50
2022-08-12T10:35:15.764Z,28.63
2022-08-12T10:38:38.104Z,28.25
2022-08-12T10:41:00.480Z,28.65
2022-08-12T10:43:55.005Z,28.29
2022-08-12T10:46:30.598Z,28.42
2022-08-12T10:49:06.931Z,28.46
2022-08-12T10:52:33.341Z,28.38
2022-08-12T10:54:40.934Z,28.30
2022-08-12T10:57:18.368Z,28.85
2022-08-12T11:00:34.426Z,28.54
2022-08-12T11:04:35.743Z,28.42
2022-08-12T11:07:02.345Z,28.64
2022-08-12T11:08:39.603Z,28.92
2022-08-12T11:11:27.733Z,28.47
2022-08-12T11:14:50.510Z,28.22
2022-08-12T11:17:53.403Z,28.22
2022-08-12T11:20:09.045Z,28.40
2022-08-12T11:22:43.196Z,28.56
2022-08-12T11:25:55.971Z,28.83
2022-08-12T11:28:14.356Z,29.14
2022-08-12T11:30:44.485Z,29.06
2022-08-12T11:33:24.354Z,29.01
2022-08-12T11:36:14.747Z,28.70
2022-08-12T11:38:43.039Z,28.85
2022-08-12T11:41:31.463Z,28.75
2022-08-12T11:44:02.009Z,28.94
2022-08-12T11:46:52.633Z,28.76
2022-08-12T11:49:30.695Z,28.71
2022-08-12T11:52:00.012Z,28.83
2022-08-12T11:54:29.518Z,29.35
2022-08-12T11:56:59.968Z,29.54
2022-08-12T12:02:20.533Z,29.44
2022-08-12T12:04:53.054Z,29.37
2022-08-12T12:08:36.187Z,29.42
2022-08-12T12:10:13.461Z,29.34
2022-08-12T12:12:49.788Z,29.57
2022-08-12T12:15:24.742Z,29.35
2022-08-12T12:17:56.356Z,29.58
2022-08-12T12:20:26.201Z,30.00
2022-08-12T12:22:58.712Z,30.16
2022-08-12T12:25:59.286Z,29.94
2022-08-12T12:42:44.038Z,29.89
2022-08-12T12:45:01.228Z,30.15
2022-08-12T12:47:30.296Z,30.03
2022-08-12T12:49:59.220Z,30.10
2022-08-12T12:52:29.312Z,30.23
2022-08-12T12:54:59.418Z,30.06
2022-08-12T12:58:00.664Z,30.22
2022-08-12T13:00:34.308Z,30.18
2022-08-12T13:03:06.029Z,29.91
2022-08-12T13:06:02.324Z,30.19
2022-08-12T13:08:35.774Z,30.50
2022-08-12T13:11:07.278Z,30.58
2022-08-12T13:14:08.161Z,30.33
2022-08-12T13:16:33.823Z,30.72
2022-08-12T13:19:02.954Z,30.71
2022-08-12T13:21:59.845Z,30.46
2022-08-12T13:24:34.096Z,30.46
2022-08-12T13:27:04.943Z,30.60
2022-08-12T13:29:40.884Z,31.01
2022-08-12T13:32:19.298Z,31.28
2022-08-12T13:35:04.285Z,30.69
2022-08-12T13:37:55.073Z,30.72
2022-08-12T13:40:29.136Z,30.87
2022-08-12T13:42:59.272Z,30.46
2022-08-12T13:45:37.077Z,30.60
2022-08-12T13:48:07.240Z,30.73
2022-08-12T13:50:38.953Z,30.78
2022-08-12T13:53:24.281Z,30.57
2022-08-12T13:56:02.214Z,30.71
2022-08-12T13:58:34.775Z,30.73
2022-08-12T14:01:08.950Z,30.58
2022-08-12T14:03:50.718Z,30.78
2022-08-12T14:06:25.930Z,30.70
2022-08-12T14:09:00.195Z,30.90
2022-08-12T14:11:59.136Z,30.72
2022-08-12T14:14:31.379Z,30.95
2022-08-12T14:17:10.748Z,31.07
2022-08-12T14:20:01.381Z,30.86
2022-08-12T14:22:32.383Z,30.74
2022-08-12T14:25:02.841Z,30.57
2022-08-12T14:28:04.395Z,30.49
2022-08-12T14:30:24.046Z,30.72
2022-08-12T14:33:03.128Z,30.63
2022-08-12T14:35:40.993Z,30.91
2022-08-12T14:38:21.038Z,30.67
2022-08-12T14:40:57.238Z,30.59
2022-08-12T14:43:31.626Z,30.54
2022-08-12T14:46:15.598Z,30.74
2022-08-12T14:48:46.935Z,30.77
2022-08-12T14:52:43.274Z,30.83
2022-08-12T14:56:59.936Z,30.51
2022-08-12T14:57:20.664Z,30.70
2022-08-12T15:00:06.827Z,30.78
2022-08-12T15:02:39.366Z,30.87
2022-08-12T15:05:09.926Z,30.94
2022-08-12T15:07:49.408Z,30.73
2022-08-12T15:10:31.259Z,30.63
2022-08-12T15:13:07.274Z,30.46
2022-08-12T15:15:45.657Z,30.64
2022-08-12T15:18:21.099Z,30.81
2022-08-12T15:20:54.503Z,30.59
2022-08-12T15:23:24.038Z,30.72
2022-08-12T15:26:03.585Z,30.57
2022-08-12T15:28:33.873Z,30.59
2022-08-12T15:31:21.435Z,30.73
2022-08-12T15:33:52.635Z,30.62
2022-08-12T15:36:36.574Z,30.72
2022-08-12T15:39:17.057Z,30.51
2022-08-12T15:41:49.443Z,30.60
2022-08-12T15:44:42.170Z,30.54
2022-08-12T15:47:08.273Z,30.77
2022-08-12T15:49:54.778Z,30.52
2022-08-12T15:52:32.637Z,30.60
2022-08-12T15:55:06.496Z,30.59
2022-08-12T15:57:41.593Z,30.54
2022-08-12T16:00:31.724Z,30.58
2022-08-12T16:03:00.354Z,30.43
2022-08-12T16:06:12.623Z,30.27
2022-08-12T16:08:27.258Z,30.22
2022-08-12T16:10:56.745Z,30.21
2022-08-12T16:13:34.291Z,30.26
2022-08-12T16:16:22.745Z,30.27
2022-08-12T16:19:03.279Z,30.31
2022-08-12T16:21:52.391Z,30.18
2022-08-12T16:24:27.706Z,30.30
2022-08-12T16:26:56.004Z,30.41
2022-08-12T16:29:49.317Z,30.21
2022-08-12T16:32:24.749Z,30.47
2022-08-12T16:35:16.156Z,30.25
2022-08-12T16:38:24.988Z,30.05
2022-08-12T16:40:35.713Z,30.17
2022-08-12T16:43:12.951Z,30.13
2022-08-12T16:46:04.969Z,30.01
2022-08-12T16:48:35.639Z,29.93
2022-08-12T16:51:09.537Z,30.26
2022-08-12T16:53:43.871Z,30.05
2022-08-12T16:56:17.016Z,30.17
2022-08-12T16:58:47.200Z,30.03
2022-08-12T17:01:16.508Z,30.11
2022-08-12T17:04:02.430Z,30.25
2022-08-12T17:06:31.015Z,30.03
2022-08-12T17:09:08.501Z,30.07
2022-08-12T17:11:43.403Z,30.11
2022-08-12T17:14:11.844Z,30.03
2022-08-12T17:16:40.932Z,29.73
2022-08-12T17:19:17.303Z,29.75
2022-08-12T17:22:02.361Z,30.21
2022-08-12T17:24:33.477Z,29.99
2022-08-12T17:27:15.907Z,29.58
2022-08-12T17:30:02.861Z,29.71
2022-08-12T17:32:36.753Z,29.67
2022-08-12T17:35:30.229Z,29.58
2022-08-12T17:38:07.009Z,29.49
2022-08-12T17:40:37.188Z,29.49
2022-08-12T17:43:56.901Z,29.41
2022-08-12T17:46:02.105Z,29.20
2022-08-12T17:48:34.963Z,29.25
2022-08-12T17:51:15.707Z,29.29
2022-08-12T17:54:10.293Z,29.04
2022-08-12T17:56:38.003Z,29.09
2022-08-12T17:59:12.292Z,29.12
2022-08-12T18:01:44.573Z,29.42
2022-08-12T18:04:23.432Z,29.30
2022-08-12T18:07:03.530Z,29.07
2022-08-12T18:09:49.472Z,28.86
2022-08-12T18:12:35.642Z,28.97
2022-08-12T18:15:08.839Z,28.98
2022-08-12T18:17:39.602Z,28.92
2022-08-12T18:20:15.528Z,28.88
2022-08-12T18:22:45.088Z,28.79
2022-08-12T18:26:13.284Z,28.78
2022-08-12T18:28:30.809Z,28.67
2022-08-12T18:31:03.522Z,28.63
2022-08-12T18:33:43.753Z,28.67
2022-08-12T18:36:27.895Z,28.60
2022-08-12T18:38:59.513Z,28.43
2022-08-12T18:41:33.763Z,28.38
2022-08-12T18:44:07.741Z,28.32
2022-08-12T18:46:53.973Z,28.23
2022-08-12T18:49:30.618Z,28.17
2022-08-12T18:52:04.477Z,27.96
2022-08-12T18:54:36.267Z,27.93
2022-08-12T18:57:16.207Z,27.77
2022-08-12T18:59:59.970Z,27.66
2022-08-12T19:02:33.814Z,27.56
2022-08-12T19:05:09.968Z,27.53
2022-08-12T19:07:49.248Z,27.39
2022-08-12T19:10:29.581Z,27.31
2022-08-12T19:13:24.182Z,27.22
2022-08-12T19:15:57.416Z,27.08
2022-08-12T19:18:30.946Z,26.96
2022-08-12T19:21:11.658Z,26.88
2022-08-12T19:23:43.794Z,26.75
2022-08-12T19:26:12.724Z,26.66
2022-08-12T19:28:41.703Z,26.57
2022-08-12T19:31:56.223Z,26.49
2022-08-12T19:34:50.482Z,26.39
2022-08-12T19:37:22.601Z,26.28
2022-08-12T19:40:08.261Z,26.21
2022-08-12T19:42:44.656Z,26.11
2022-08-12T19:45:15.732Z,26.06
2022-08-12T19:47:46.769Z,25.97
2022-08-12T19:50:20.068Z,25.89
2022-08-12T19:52:51.055Z,25.74
2022-08-12T19:55:23.015Z,25.70
2022-08-12T19:58:02.555Z,25.58
2022-08-12T20:00:35.052Z,25.49
2022-08-12T20:03:06.840Z,25.47
2022-08-12T20:06:06.528Z,25.38
2022-08-12T20:08:34.078Z,25.31
2022-08-12T20:12:13.983Z,25.25
2022-08-12T20:14:00.528Z,25.18
2022-08-12T20:16:54.315Z,25.12
2022-08-12T20:19:52.571Z,25.06
2022-08-12T20:22:24.650Z,25.01
2022-08-12T20:24:57.775Z,24.92
2022-08-12T20:27:29.060Z,24.91
2022-08-12T20:30:15.145Z,24.84
2022-08-12T20:32:54.027Z,24.79
2022-08-12T20:35:24.657Z,24.75
2022-08-12T20:38:07.232Z,24.75
2022-08-12T20:40:47.782Z,24.68
2022-08-12T20:43:20.775Z,24.63
2022-08-12T20:45:58.126Z,24.55
2022-08-12T20:48:29.563Z,24.54
2022-08-12T20:51:04.329Z,24.47
2022-08-12T20:53:57.673Z,24.49
2022-08-12T20:56:30.734Z,24.41
2022-08-12T20:59:01.436Z,24.36
2022-08-12T21:01:36.634Z,24.34
2022-08-12T21:04:35.326Z,24.36
2022-08-12T21:07:09.576Z,24.28
2022-08-12T21:09:44.182Z,24.25
2022-08-12T21:12:31.483Z,24.16
2022-08-12T21:15:24.281Z,24.18
2022-08-12T21:18:11.320Z,24.14
2022-08-12T21:20:52.561Z,24.12
2022-08-12T21:23:23.008Z,24.07
2022-08-12T21:26:01.032Z,24.04
2022-08-12T21:28:31.661Z,23.99
2022-08-12T21:32:35.336Z,23.92
2022-08-12T21:34:08.525Z,23.91
2022-08-12T21:36:40.257Z,23.84
2022-08-12T21:39:18.898Z,23.79
2022-08-12T21:41:53.406Z,23.69
2022-08-12T21:44:24.081Z,23.64
2022-08-12T21:47:20.798Z,23.60
2022-08-12T21:49:54.099Z,23.57
2022-08-12T21:52:33.941Z,23.46
2022-08-12T21:55:02.476Z,23.44
2022-08-12T21:57:36.379Z,23.40
2022-08-12T22:00:19.812Z,23.30
2022-08-12T22:03:13.978Z,23.30
2022-08-12T22:06:02.897Z,23.24
2022-08-12T22:08:33.460Z,23.16
2022-08-12T22:11:01.601Z,23.12
2022-08-12T22:14:02.080Z,23.01
2022-08-12T22:16:20.737Z,23.04
2022-08-12T22:18:51.034Z,23.02
2022-08-12T22:21:22.106Z,22.89
2022-08-12T22:24:04.878Z,22.85
2022-08-12T22:26:36.962Z,22.79
2022-08-12T22:29:27.584Z,22.78
2022-08-12T22:31:57.078Z,22.71
2022-08-12T22:34:33.425Z,22.63
2022-08-12T22:37:02.713Z,22.57
2022-08-12T22:39:31.689Z,22.57
2022-08-12T22:42:19.771Z,22.53
2022-08-12T22:45:15.902Z,22.40
2022-08-12T22:47:53.881Z,22.40
2022-08-12T22:50:27.828Z,22.38
2022-08-12T22:53:15.053Z,22.25
2022-08-12T22:56:05.641Z,22.28
2022-08-12T22:58:41.455Z,22.27
2022-08-12T23:01:21.289Z,22.21
2022-08-12T23:04:00.474Z,22.18
2022-08-12T23:06:31.060Z,22.14
2022-08-12T23:08:59.385Z,22.15
2022-08-12T23:11:36.185Z,22.09
2022-08-12T23:14:11.241Z,22.05
2022-08-12T23:16:41.575Z,22.01
2022-08-12T23:19:17.827Z,22.00
2022-08-12T23:22:03.749Z,21.94
2022-08-12T23:24:56.188Z,21.86
2022-08-12T23:27:51.330Z,21.92
2022-08-12T23:30:32.457Z,21.86
2022-08-12T23:33:20.108Z,21.89
2022-08-12T23:36:02.659Z,21.85
2022-08-12T23:38:32.827Z,21.85
2022-08-12T23:41:02.028Z,21.86
2022-08-12T23:43:39.181Z,21.83
2022-08-12T23:46:09.154Z,21.78
2022-08-12T23:48:40.009Z,21.77
2022-08-12T23:51:23.385Z,21.76
2022-08-12T23:53:55.271Z,21.67
2022-08-12T23:56:24.766Z,21.70
2022-08-12T23:58:55.189Z,21.69
